Time;durP1;ratioP1;P1;durP2;ratioP2;P2;SDS_P1;SDS_P2;PMS_P1;PMS_P2;Temp;Humidity;BMP_temperature;BMP_pressure;BME280_temperature;BME280_humidity;BME280_pressure;Samples;Min_cycle;Max_cycle;Signal;HPM_P1;HPM_P2
2023/09/04 00:01:41;;;;;;;5.40;5.10;;;21.90;78.90;;;;;;4187155;28;20071;-49
2023/09/04 00:04:22;;;;;;;4.15;3.88;;;21.90;78.90;;;;;;4187264;28;20075;-46
2023/09/04 00:07:03;;;;;;;4.43;4.13;;;21.90;78.90;;;;;;4187472;28;20051;-47
2023/09/04 00:09:44;;;;;;;4.47;4.18;;;21.90;78.80;;;;;;4187214;28;20680;-48
2023/09/04 00:12:27;;;;;;;5.45;5.15;;;21.90;78.80;;;;;;4187231;28;20075;-49
2023/09/04 00:15:08;;;;;;;5.40;5.07;;;21.90;78.60;;;;;;4186983;28;20059;-49
2023/09/04 00:17:48;;;;;;;;;;;21.90;78.70;;;;;;4187383;28;20058;-46
2023/09/04 00:20:30;;;;;;;5.32;4.90;;;21.90;78.90;;;;;;4186803;28;20635;-52
2023/09/04 00:23:10;;;;;;;4.93;4.55;;;21.90;79.50;;;;;;4187124;28;20047;-52
2023/09/04 00:25:51;;;;;;;4.43;4.22;;;21.80;79.00;;;;;;4185826;28;20097;-49
2023/09/04 00:28:33;;;;;;;4.50;4.20;;;21.80;78.90;;;;;;4187203;28;20125;-45
2023/09/04 00:31:14;;;;;;;5.30;4.80;;;21.80;78.70;;;;;;4190152;28;20384;-50
2023/09/04 00:33:57;;;;;;;4.18;3.97;;;21.80;79.50;;;;;;4190710;28;20059;-46
2023/09/04 00:36:38;;;;;;;4.18;3.90;;;21.80;78.50;;;;;;4189362;28;20056;-49
2023/09/04 00:39:18;;;;;;;5.25;4.90;;;21.80;78.40;;;;;;4190491;28;20055;-49
2023/09/04 00:41:59;;;;;;;5.40;5.00;;;21.80;78.50;;;;;;4189040;28;20070;-43
2023/09/04 00:44:43;;;;;;;5.60;4.82;;;21.80;78.60;;;;;;4190305;28;20047;-50
2023/09/04 00:47:24;;;;;;;4.97;4.57;;;21.80;78.60;;;;;;4190273;28;20222;-48
2023/09/04 00:50:08;;;;;;;5.25;4.90;;;21.70;78.50;;;;;;4189163;28;20056;-48
2023/09/04 00:52:50;;;;;;;4.28;3.97;;;21.70;78.30;;;;;;4188851;28;20097;-48
2023/09/04 00:55:32;;;;;;;4.20;3.80;;;21.70;78.40;;;;;;4188539;28;20452;-50
2023/09/04 00:58:13;;;;;;;5.40;4.90;;;21.70;78.30;;;;;;4190157;28;20125;-49
2023/09/04 01:00:56;;;;;;;4.45;3.95;;;21.70;78.00;;;;;;4188359;28;20055;-49
2023/09/04 01:03:37;;;;;;;3.97;3.78;;;21.70;79.00;;;;;;4188400;28;20122;-41
2023/09/04 01:06:18;;;;;;;4.32;4.00;;;21.70;78.30;;;;;;4183399;28;20496;-49
2023/09/04 01:08:59;;;;;;;4.47;4.07;;;21.70;78.30;;;;;;4172003;28;20048;-42
2023/09/04 01:11:43;;;;;;;3.97;3.78;;;21.60;78.30;;;;;;4173384;28;20167;-45
2023/09/04 01:14:25;;;;;;;3.78;3.53;;;21.60;78.40;;;;;;4173320;28;20146;-46
2023/09/04 01:17:08;;;;;;;3.65;3.22;;;21.70;78.40;;;;;;4172305;28;20512;-42
2023/09/04 01:19:49;;;;;;;3.40;3.25;;;21.60;79.00;;;;;;4180980;28;20204;-49
2023/09/04 01:22:31;;;;;;;3.15;2.97;;;21.60;78.30;;;;;;4187137;28;20052;-46
2023/09/04 01:25:14;;;;;;;3.13;2.92;;;21.60;79.10;;;;;;4187909;28;20510;-48
2023/09/04 01:28:03;;;;;;;2.25;2.15;;;21.60;78.30;;;;;;4189442;28;20517;-47
2023/09/04 01:30:51;;;;;;;1.48;1.48;;;21.60;78.00;;;;;;4200063;28;20060;-48
2023/09/04 01:33:39;;;;;;;1.65;1.58;;;21.60;78.00;;;;;;4189562;28;20047;-46
2023/09/04 01:36:23;;;;;;;1.85;1.77;;;21.60;78.10;;;;;;4187607;28;20174;-42
2023/09/04 01:39:07;;;;;;;1.40;1.40;;;21.60;77.90;;;;;;4172420;28;20186;-48
2023/09/04 01:41:47;;;;;;;2.28;2.17;;;21.60;77.70;;;;;;4170628;28;20052;-51
2023/09/04 01:44:28;;;;;;;2.40;2.30;;;21.60;77.80;;;;;;4172620;28;20110;-50
2023/09/04 01:47:09;;;;;;;;;;;21.50;77.70;;;;;;4172805;28;20098;-47
2023/09/04 01:49:50;;;;;;;1.80;1.80;;;21.50;78.00;;;;;;4170169;28;19931;-47
2023/09/04 01:52:31;;;;;;;2.03;1.92;;;21.50;78.90;;;;;;4180205;28;20298;-48
2023/09/04 01:55:13;;;;;;;2.33;2.20;;;21.50;78.40;;;;;;4171261;28;20048;-51
2023/09/04 01:57:55;;;;;;;3.97;3.00;;;21.50;78.90;;;;;;4171328;28;20130;-47
2023/09/04 02:00:37;;;;;;;2.53;2.42;;;21.50;78.00;;;;;;4182824;28;20060;-48
2023/09/04 02:03:18;;;;;;;2.88;2.78;;;21.50;77.80;;;;;;4182897;28;20486;-48
2023/09/04 02:05:59;;;;;;;2.90;2.70;;;21.50;77.90;;;;;;4172451;28;20059;-46
2023/09/04 02:08:40;;;;;;;4.22;3.95;;;21.50;77.90;;;;;;4176860;28;20052;-48
2023/09/04 02:11:22;;;;;;;;;;;21.50;78.00;;;;;;4189576;28;20185;-47
2023/09/04 02:14:03;;;;;;;3.63;3.33;;;21.40;78.10;;;;;;4188779;28;19970;-48
2023/09/04 02:16:48;;;;;;;2.63;2.42;;;21.40;78.80;;;;;;4199106;28;20410;-50
2023/09/04 02:19:29;;;;;;;2.45;2.35;;;21.40;78.30;;;;;;4188566;28;20446;-48
2023/09/04 02:22:10;;;;;;;2.67;2.20;;;21.40;78.10;;;;;;4176083;28;20107;-50
2023/09/04 02:24:50;;;;;;;2.47;2.38;;;21.40;78.00;;;;;;4187156;28;20067;-53
2023/09/04 02:27:33;;;;;;;2.72;2.63;;;21.40;77.90;;;;;;4187780;28;20511;-49
2023/09/04 02:30:14;;;;;;;2.88;2.78;;;21.40;77.90;;;;;;4187917;28;20063;-51
2023/09/04 02:32:58;;;;;;;3.78;3.47;;;21.40;77.90;;;;;;4181626;28;20056;-51
2023/09/04 02:35:40;;;;;;;4.30;4.00;;;21.40;77.90;;;;;;4171662;28;20055;-49
2023/09/04 02:38:22;;;;;;;3.28;3.08;;;21.40;77.80;;;;;;4170886;28;20101;-51
2023/09/04 02:41:03;;;;;;;3.20;3.00;;;21.30;77.70;;;;;;4172180;28;20187;-48
2023/09/04 02:43:46;;;;;;;4.10;3.63;;;21.30;77.70;;;;;;4170799;28;20059;-47
2023/09/04 02:46:31;;;;;;;4.25;3.90;;;21.30;77.70;;;;;;4171834;28;20055;-49
2023/09/04 02:49:12;;;;;;;4.22;3.92;;;21.30;77.60;;;;;;4172459;28;20118;-48
2023/09/04 02:51:54;;;;;;;4.38;4.07;;;21.30;78.40;;;;;;4171526;28;20071;-53
2023/09/04 02:54:35;;;;;;;3.97;3.65;;;21.30;77.70;;;;;;4169547;28;20593;-49
2023/09/04 02:57:16;;;;;;;3.88;3.17;;;21.30;77.70;;;;;;4171298;28;20133;-48
2023/09/04 02:59:59;;;;;;;3.20;3.00;;;21.30;77.60;;;;;;4186383;28;20063;-49
2023/09/04 03:02:40;;;;;;;4.38;4.07;;;21.20;77.40;;;;;;4182673;28;20182;-46
2023/09/04 03:05:21;;;;;;;3.88;3.67;;;21.20;77.40;;;;;;4187859;28;20051;-46
2023/09/04 03:08:03;;;;;;;3.85;3.65;;;21.20;78.30;;;;;;4187774;28;20059;-46
2023/09/04 03:10:44;;;;;;;3.47;3.28;;;21.20;77.60;;;;;;4186409;28;20058;-45
2023/09/04 03:13:25;;;;;;;3.53;3.33;;;21.20;77.50;;;;;;4186259;28;20063;-45
2023/09/04 03:16:07;;;;;;;3.92;3.63;;;21.20;77.50;;;;;;4186280;28;20051;-46
2023/09/04 03:18:49;;;;;;;3.72;3.53;;;21.20;77.50;;;;;;4174467;28;20047;-52
2023/09/04 03:21:31;;;;;;;4.15;3.88;;;21.20;77.60;;;;;;4180750;28;20074;-47
2023/09/04 03:24:12;;;;;;;3.28;3.08;;;21.20;77.50;;;;;;4193945;28;20115;-51
2023/09/04 03:26:53;;;;;;;3.30;3.10;;;21.20;77.60;;;;;;4186717;28;20387;-49
2023/09/04 03:29:34;;;;;;;;;;;21.10;77.50;;;;;;4187351;28;20487;-44
2023/09/04 03:32:16;;;;;;;3.17;2.97;;;21.10;77.80;;;;;;4187507;28;20061;-42
2023/09/04 03:34:57;;;;;;;3.25;2.80;;;21.10;78.40;;;;;;4175114;28;20067;-45
2023/09/04 03:37:38;;;;;;;3.90;3.70;;;21.10;77.90;;;;;;4185949;28;20047;-45
2023/09/04 03:40:21;;;;;;;3.42;3.22;;;21.10;77.60;;;;;;4198211;28;20403;-53
2023/09/04 03:43:02;;;;;;;3.60;3.40;;;21.10;77.60;;;;;;4198365;28;20047;-47
2023/09/04 03:45:43;;;;;;;2.63;2.42;;;21.10;78.40;;;;;;4187510;28;20411;-51
2023/09/04 03:48:25;;;;;;;3.00;2.90;;;21.10;77.60;;;;;;4187649;28;20063;-50
2023/09/04 03:51:06;;;;;;;3.08;2.80;;;21.10;77.60;;;;;;4171470;28;20508;-50
2023/09/04 03:53:48;;;;;;;2.55;2.40;;;21.00;77.50;;;;;;4169912;28;20102;-48
2023/09/04 03:56:29;;;;;;;3.63;3.33;;;21.00;77.40;;;;;;4171396;28;20125;-49
2023/09/04 03:59:10;;;;;;;2.80;2.70;;;21.00;77.40;;;;;;4185940;28;20043;-47
2023/09/04 04:01:52;;;;;;;2.40;2.30;;;21.00;77.40;;;;;;4186363;28;20059;-47
2023/09/04 04:04:35;;;;;;;3.15;2.83;;;21.00;77.40;;;;;;4184923;28;20054;-43
2023/09/04 04:07:15;;;;;;;2.90;2.70;;;21.00;77.40;;;;;;4187447;28;20507;-44
2023/09/04 04:09:57;;;;;;;2.60;2.50;;;21.00;77.40;;;;;;4187169;28;20066;-42
2023/09/04 04:12:38;;;;;;;4.03;3.40;;;21.00;77.40;;;;;;4186757;28;20051;-42
2023/09/04 04:15:19;;;;;;;;;;;21.00;77.20;;;;;;4186326;28;20056;-42
2023/09/04 04:17:59;;;;;;;4.03;3.75;;;20.90;77.40;;;;;;4185910;28;19931;-44
2023/09/04 04:20:42;;;;;;;4.60;4.25;;;20.90;78.10;;;;;;4185942;28;20051;-44
2023/09/04 04:23:23;;;;;;;4.20;3.90;;;20.90;77.70;;;;;;4185547;28;20068;-43
2023/09/04 04:26:04;;;;;;;3.40;3.20;;;20.90;77.60;;;;;;4186868;28;20581;-48
2023/09/04 04:28:45;;;;;;;3.70;3.50;;;20.90;78.30;;;;;;4185977;28;20044;-44
2023/09/04 04:31:26;;;;;;;3.35;3.15;;;20.90;77.50;;;;;;4186947;28;20060;-42
2023/09/04 04:34:07;;;;;;;3.80;3.60;;;20.90;77.50;;;;;;4186763;28;20872;-44
2023/09/04 04:36:56;;;;;;;5.05;4.55;;;20.80;77.30;;;;;;4185140;28;20051;-44
2023/09/04 04:39:37;;;;;;;3.63;3.30;;;20.90;77.00;;;;;;4185009;28;20067;-49
2023/09/04 04:42:18;;;;;;;3.20;3.00;;;20.80;77.30;;;;;;4186024;28;20059;-43
2023/09/04 04:45:00;;;;;;;2.50;2.40;;;20.80;77.20;;;;;;4184169;28;20431;-48
2023/09/04 04:47:41;;;;;;;2.40;2.30;;;20.80;77.20;;;;;;4186448;28;20505;-47
2023/09/04 04:50:24;;;;;;;2.55;2.45;;;20.80;78.10;;;;;;4184147;28;20068;-51
2023/09/04 04:53:07;;;;;;;3.13;2.92;;;20.80;77.10;;;;;;4185551;28;20046;-46
2023/09/04 04:55:48;;;;;;;2.70;2.53;;;20.80;77.00;;;;;;4185550;28;20490;-49
2023/09/04 04:58:28;;;;;;;3.10;2.35;;;20.80;77.10;;;;;;4197542;28;20109;-46
2023/09/04 05:01:10;;;;;;;2.35;2.17;;;20.80;77.10;;;;;;4185919;28;20064;-48
2023/09/04 05:03:51;;;;;;;2.35;2.25;;;20.80;77.10;;;;;;4169646;28;20412;-42
2023/09/04 05:06:32;;;;;;;2.60;2.45;;;20.80;77.10;;;;;;4180858;28;20055;-49
2023/09/04 05:09:15;;;;;;;2.42;2.22;;;20.70;77.10;;;;;;4170451;28;20145;-46
2023/09/04 05:11:57;;;;;;;3.00;2.85;;;20.80;77.10;;;;;;4168895;28;20051;-47
2023/09/04 05:14:38;;;;;;;2.05;1.95;;;20.70;77.00;;;;;;4169673;28;20056;-46
2023/09/04 05:17:19;;;;;;;;;;;20.70;76.90;;;;;;4172830;28;20503;-47
2023/09/04 05:20:00;;;;;;;;;;;20.70;77.10;;;;;;4180003;28;19928;-48
2023/09/04 05:22:41;;;;;;;2.67;2.55;;;20.70;78.10;;;;;;4177011;28;19931;-47
2023/09/04 05:25:24;;;;;;;2.90;2.00;;;20.70;78.50;;;;;;4187841;28;20062;-46
2023/09/04 05:28:05;;;;;;;2.05;1.95;;;20.70;78.00;;;;;;4189160;28;20055;-47
2023/09/04 05:30:47;;;;;;;1.98;1.88;;;20.80;77.80;;;;;;4189861;28;20054;-46
2023/09/04 05:33:28;;;;;;;;;;;20.80;77.50;;;;;;4190371;28;20499;-47
2023/09/04 05:36:10;;;;;;;2.93;2.33;;;20.80;77.50;;;;;;4189228;28;19926;-47
2023/09/04 05:38:51;;;;;;;2.58;2.38;;;20.70;78.00;;;;;;4172479;28;20051;-46
2023/09/04 05:41:34;;;;;;;3.00;2.70;;;20.70;77.60;;;;;;4172556;28;20056;-47
2023/09/04 05:44:15;;;;;;;3.55;2.70;;;20.70;77.40;;;;;;4172239;28;20495;-48
2023/09/04 05:46:56;;;;;;;2.55;2.33;;;20.70;77.40;;;;;;4172194;28;20075;-49
2023/09/04 05:49:38;;;;;;;4.00;2.58;;;20.70;77.30;;;;;;4172636;28;20051;-45
2023/09/04 05:52:19;;;;;;;3.20;2.88;;;20.70;77.30;;;;;;4186197;28;20060;-45
2023/09/04 05:55:00;;;;;;;3.08;2.88;;;20.70;77.20;;;;;;4188346;28;20083;-44
2023/09/04 05:57:42;;;;;;;4.43;3.03;;;20.70;77.10;;;;;;4188957;28;20130;-47
2023/09/04 06:00:23;;;;;;;3.50;3.20;;;20.70;77.10;;;;;;4188522;28;20067;-46
2023/09/04 06:03:04;;;;;;;3.58;3.22;;;20.70;77.10;;;;;;4189402;28;20364;-47
2023/09/04 06:05:46;;;;;;;5.88;3.78;;;20.70;77.10;;;;;;4187242;28;20050;-48
2023/09/04 06:08:27;;;;;;;4.05;3.75;;;20.70;77.20;;;;;;4188070;28;20097;-47
2023/09/04 06:11:08;;;;;;;8.82;5.40;;;20.70;77.20;;;;;;4171999;28;20068;-49
2023/09/04 06:13:51;;;;;;;5.32;4.85;;;20.60;77.30;;;;;;4172729;28;20620;-51
2023/09/04 06:16:32;;;;;;;6.25;5.65;;;20.60;77.40;;;;;;4171772;28;20055;-47
2023/09/04 06:19:13;;;;;;;6.72;6.03;;;20.60;77.50;;;;;;4170881;28;20047;-51
2023/09/04 06:21:54;;;;;;;6.88;6.38;;;20.60;77.70;;;;;;4188189;28;20048;-50
2023/09/04 06:24:36;;;;;;;;;;;20.60;77.80;;;;;;4189463;28;20399;-45
2023/09/04 06:27:16;;;;;;;7.65;6.95;;;20.60;78.00;;;;;;4187755;28;19928;-49
2023/09/04 06:29:59;;;;;;;8.48;7.07;;;20.60;78.40;;;;;;4188618;28;20048;-46
2023/09/04 06:32:40;;;;;;;9.27;7.20;;;20.60;78.20;;;;;;4188487;28;20530;-44
2023/09/04 06:35:21;;;;;;;7.75;6.93;;;20.60;78.30;;;;;;4188772;28;20067;-49
2023/09/04 06:38:02;;;;;;;9.43;8.52;;;20.60;78.40;;;;;;4188520;28;20087;-47
2023/09/04 06:40:43;;;;;;;8.75;7.53;;;20.70;78.70;;;;;;4169738;28;20055;-45
2023/09/04 06:43:26;;;;;;;8.82;7.93;;;20.70;78.70;;;;;;4184994;28;20083;-45
2023/09/04 06:46:08;;;;;;;9.52;8.57;;;20.70;78.70;;;;;;4182793;28;20063;-42
2023/09/04 06:48:49;;;;;;;9.68;8.45;;;20.70;78.70;;;;;;4184264;28;20141;-49
2023/09/04 06:51:31;;;;;;;9.95;9.00;;;20.70;78.70;;;;;;4169196;28;20403;-48
2023/09/04 06:54:12;;;;;;;11.10;8.48;;;20.70;78.70;;;;;;4167935;28;20187;-48
2023/09/04 06:56:53;;;;;;;11.90;9.20;;;20.70;78.80;;;;;;4172050;28;20060;-42
2023/09/04 06:59:34;;;;;;;11.70;8.73;;;20.80;78.90;;;;;;4168135;28;20052;-46
2023/09/04 07:02:20;;;;;;;11.60;8.48;;;20.80;79.00;;;;;;4178004;28;20055;-44
2023/09/04 07:05:01;;;;;;;11.25;8.63;;;20.80;79.20;;;;;;4179420;28;20056;-46
2023/09/04 07:07:42;;;;;;;10.00;9.00;;;20.70;79.10;;;;;;4173244;28;20502;-48
2023/09/04 07:10:23;;;;;;;10.45;9.13;;;20.70;79.20;;;;;;4182641;28;20059;-42
2023/09/04 07:13:04;;;;;;;12.20;9.05;;;20.70;80.20;;;;;;4169219;28;20126;-42
2023/09/04 07:15:45;;;;;;;;;;;20.70;79.40;;;;;;4175564;28;20499;-42
2023/09/04 07:18:27;;;;;;;10.63;8.38;;;20.70;79.50;;;;;;4176302;28;20434;-44
2023/09/04 07:21:08;;;;;;;10.32;8.65;;;20.70;79.50;;;;;;4181244;28;20052;-50
2023/09/04 07:23:49;;;;;;;10.15;9.18;;;20.70;79.70;;;;;;4174263;28;20071;-51
2023/09/04 07:26:30;;;;;;;;;;;20.80;79.90;;;;;;4174080;28;20142;-48
2023/09/04 07:29:11;;;;;;;10.57;9.48;;;20.80;79.80;;;;;;4168931;28;20401;-46
2023/09/04 07:31:53;;;;;;;10.57;9.52;;;20.80;79.80;;;;;;4168822;28;20105;-45
2023/09/04 07:34:37;;;;;;;16.27;8.95;;;20.90;79.90;;;;;;4177875;28;20105;-49
2023/09/04 07:37:17;;;;;;;10.75;8.10;;;20.90;80.10;;;;;;4169059;28;20075;-43
2023/09/04 07:39:58;;;;;;;;;;;21.00;80.10;;;;;;4173228;28;20605;-42
2023/09/04 07:42:42;;;;;;;9.15;8.25;;;21.00;80.20;;;;;;4184619;28;19931;-42
2023/09/04 07:45:24;;;;;;;11.38;7.95;;;21.00;80.50;;;;;;4181333;28;20133;-43
2023/09/04 07:48:06;;;;;;;8.52;7.72;;;21.10;80.80;;;;;;4178203;28;20595;-47
2023/09/04 07:50:49;;;;;;;8.98;8.18;;;21.10;81.00;;;;;;4171376;28;20052;-47
2023/09/04 07:53:30;;;;;;;8.60;7.80;;;21.10;81.30;;;;;;4170137;28;20101;-49
2023/09/04 07:56:11;;;;;;;7.72;7.03;;;21.20;81.60;;;;;;4168593;28;20056;-46
2023/09/04 07:58:52;;;;;;;8.25;7.03;;;21.20;81.90;;;;;;4184188;28;20043;-44
2023/09/04 08:01:34;;;;;;;7.22;6.72;;;21.30;81.80;;;;;;4167826;28;20106;-43
2023/09/04 08:04:15;;;;;;;6.28;5.68;;;21.30;81.70;;;;;;4168335;28;21008;-47
2023/09/04 08:06:57;;;;;;;5.38;4.97;;;21.40;81.50;;;;;;4179809;28;20182;-47
2023/09/04 08:09:38;;;;;;;5.65;5.15;;;21.40;81.10;;;;;;4184390;28;20186;-42
2023/09/04 08:12:19;;;;;;;6.28;5.80;;;21.40;81.10;;;;;;4180852;28;20137;-45
2023/09/04 08:15:00;;;;;;;6.90;5.68;;;21.50;80.40;;;;;;4175883;28;20132;-42
2023/09/04 08:17:43;;;;;;;;;;;21.50;80.10;;;;;;4184853;28;20403;-43
2023/09/04 08:20:24;;;;;;;6.38;5.82;;;21.60;80.00;;;;;;4173963;28;20298;-44
2023/09/04 08:23:09;;;;;;;5.53;5.03;;;21.60;80.00;;;;;;4176678;28;21349;-42
2023/09/04 08:25:58;;;;;;;14.63;7.25;;;21.60;79.60;;;;;;4168501;28;20052;-42
2023/09/04 08:28:40;;;;;;;5.85;4.75;;;21.60;79.30;;;;;;4184185;28;20404;-45
2023/09/04 08:31:21;;;;;;;5.28;4.47;;;21.70;79.10;;;;;;4184221;28;20407;-49
2023/09/04 08:34:03;;;;;;;4.68;4.38;;;21.70;78.70;;;;;;4181646;28;20055;-48
2023/09/04 08:36:44;;;;;;;5.28;4.78;;;21.70;78.50;;;;;;4183871;28;20629;-48
2023/09/04 08:39:27;;;;;;;4.30;3.85;;;21.80;78.70;;;;;;4172270;28;20067;-47
2023/09/04 08:42:08;;;;;;;4.13;3.83;;;21.80;78.90;;;;;;4169678;28;20602;-47
2023/09/04 08:44:51;;;;;;;4.15;3.70;;;21.80;78.90;;;;;;4167066;28;20052;-47
2023/09/04 08:47:33;;;;;;;4.68;3.80;;;21.90;78.20;;;;;;4172431;28;20043;-47
2023/09/04 08:50:19;;;;;;;3.80;3.50;;;21.90;77.80;;;;;;4161759;28;20052;-42
2023/09/04 08:53:02;;;;;;;3.60;3.30;;;21.90;77.60;;;;;;4178266;28;20056;-48
2023/09/04 08:55:44;;;;;;;3.58;3.28;;;21.90;77.50;;;;;;4174935;28;20052;-44
2023/09/04 08:58:27;;;;;;;3.28;3.05;;;22.00;77.80;;;;;;4170341;28;20145;-50
2023/09/04 09:01:12;;;;;;;3.65;3.08;;;22.00;77.80;;;;;;4135362;28;20192;-43
2023/09/04 09:03:54;;;;;;;3.35;3.05;;;22.10;77.60;;;;;;4147049;28;20415;-48
2023/09/04 09:06:36;;;;;;;3.30;3.10;;;22.10;77.40;;;;;;4182694;28;20051;-47
2023/09/04 09:09:21;;;;;;;3.30;3.10;;;22.10;76.90;;;;;;4187078;28;20073;-51
2023/09/04 09:12:04;;;;;;;3.42;3.00;;;22.10;76.20;;;;;;4171490;28;20060;-50
2023/09/04 09:14:45;;;;;;;2.80;2.45;;;22.20;76.10;;;;;;4181218;28;20495;-48
2023/09/04 09:17:26;;;;;;;3.28;2.97;;;22.20;75.80;;;;;;4186041;28;20190;-47
2023/09/04 09:20:10;;;;;;;2.67;2.58;;;22.20;75.50;;;;;;4176163;28;20079;-48
2023/09/04 09:22:52;;;;;;;4.38;3.15;;;22.20;75.30;;;;;;4171159;28;20055;-44
2023/09/04 09:25:33;;;;;;;3.15;2.85;;;22.30;75.30;;;;;;4178641;28;20052;-46
2023/09/04 09:28:15;;;;;;;3.00;2.70;;;22.30;75.40;;;;;;4174698;28;20051;-45
2023/09/04 09:30:59;;;;;;;3.17;2.95;;;22.30;75.30;;;;;;4183907;28;20063;-45
2023/09/04 09:33:40;;;;;;;3.80;3.50;;;22.40;75.20;;;;;;4155218;28;20060;-42
2023/09/04 09:36:21;;;;;;;3.70;3.50;;;22.40;75.00;;;;;;4186722;28;20059;-45
2023/09/04 09:39:03;;;;;;;4.13;3.72;;;22.40;75.00;;;;;;4186072;28;20125;-43
2023/09/04 09:41:46;;;;;;;3.90;3.58;;;22.40;74.80;;;;;;4186604;28;20071;-44
2023/09/04 09:44:32;;;;;;;3.47;3.28;;;22.40;75.00;;;;;;4171016;28;20159;-43
2023/09/04 09:47:14;;;;;;;3.88;3.50;;;22.50;75.00;;;;;;4170816;28;20067;-43
2023/09/04 09:49:58;;;;;;;3.47;3.22;;;22.50;75.00;;;;;;4170284;28;20101;-44
2023/09/04 09:52:56;;;;;;;4.05;3.75;;;22.60;74.80;;;;;;4186049;28;20071;-40
2023/09/04 09:55:38;;;;;;;3.90;3.25;;;22.60;75.10;;;;;;4185616;28;20052;-43
2023/09/04 09:58:20;;;;;;;4.75;3.83;;;22.70;75.60;;;;;;4181578;28;20463;-42
2023/09/04 10:01:02;;;;;;;3.70;3.45;;;22.70;75.50;;;;;;4171940;28;20408;-43
2023/09/04 10:03:46;;;;;;;5.43;3.92;;;22.70;75.20;;;;;;4170297;28;20052;-41
2023/09/04 10:06:34;;;;;;;3.40;3.10;;;22.80;74.90;;;;;;4184739;28;20047;-48
2023/09/04 10:09:20;;;;;;;4.35;3.42;;;22.80;74.30;;;;;;4174457;28;20102;-51
2023/09/04 10:12:09;;;;;;;3.60;3.40;;;22.80;73.30;;;;;;4173217;28;20075;-49
2023/09/04 10:14:52;;;;;;;3.10;2.95;;;22.80;73.20;;;;;;4171165;28;20056;-49
2023/09/04 10:17:43;;;;;;;3.00;2.80;;;22.80;73.10;;;;;;4183788;28;20087;-49
2023/09/04 10:20:26;;;;;;;3.85;3.25;;;22.90;73.10;;;;;;4165537;28;20059;-48
2023/09/04 10:23:09;;;;;;;3.17;2.92;;;22.90;73.20;;;;;;4164992;28;20598;-41
2023/09/04 10:25:55;;;;;;;4.68;3.17;;;22.90;72.80;;;;;;4175488;28;20064;-41
2023/09/04 10:28:41;;;;;;;2.80;2.60;;;23.00;73.00;;;;;;4172727;28;20122;-40
2023/09/04 10:31:26;;;;;;;2.97;2.78;;;23.00;72.60;;;;;;4169104;28;20059;-40
2023/09/04 10:34:08;;;;;;;3.88;3.03;;;23.00;72.00;;;;;;4185980;28;20067;-41
2023/09/04 10:36:49;;;;;;;2.47;2.28;;;23.00;71.70;;;;;;4173200;28;20064;-41
2023/09/04 10:39:32;;;;;;;2.35;2.25;;;23.10;71.80;;;;;;4169172;28;20079;-43
2023/09/04 10:42:13;;;;;;;2.30;2.20;;;23.10;72.10;;;;;;4179702;28;20171;-40
2023/09/04 10:44:56;;;;;;;3.10;2.50;;;23.10;72.00;;;;;;4178891;28;20170;-40
2023/09/04 10:47:45;;;;;;;2.88;2.30;;;23.10;72.30;;;;;;4179167;28;20406;-42
2023/09/04 10:50:33;;;;;;;2.60;2.50;;;23.20;71.90;;;;;;4171192;28;20091;-41
2023/09/04 10:53:14;;;;;;;2.65;2.45;;;23.20;71.50;;;;;;4183604;28;20675;-40
2023/09/04 10:56:12;;;;;;;2.70;2.60;;;23.20;71.70;;;;;;4172070;28;20044;-50
2023/09/04 10:59:01;;;;;;;3.08;2.10;;;23.30;71.50;;;;;;4174625;28;20499;-51
2023/09/04 11:01:42;;;;;;;2.85;2.25;;;23.30;71.80;;;;;;4168613;28;20044;-49
2023/09/04 11:04:45;;;;;;;2.17;2.08;;;23.30;71.90;;;;;;4170831;28;20068;-48
2023/09/04 11:07:34;;;;;;;1.90;1.80;;;23.40;71.80;;;;;;4177386;28;20055;-51
2023/09/04 11:10:39;;;;;;;3.28;2.25;;;23.40;71.50;;;;;;4185092;28;20078;-49
2023/09/04 11:13:22;;;;;;;2.47;2.38;;;23.40;70.70;;;;;;4185379;28;20540;-48
2023/09/04 11:16:06;;;;;;;2.42;2.22;;;23.40;71.30;;;;;;4171229;28;20094;-52
2023/09/04 11:18:48;;;;;;;2.50;2.28;;;23.40;71.30;;;;;;4168760;28;20160;-50
2023/09/04 11:21:32;;;;;;;2.25;1.75;;;23.40;70.90;;;;;;4178768;28;20051;-51
2023/09/04 11:24:19;;;;;;;2.60;2.28;;;23.40;70.30;;;;;;4187244;28;20130;-49
2023/09/04 11:27:00;;;;;;;1.98;1.80;;;23.50;70.10;;;;;;4187854;28;20055;-47
2023/09/04 11:29:41;;;;;;;2.30;2.20;;;23.50;70.90;;;;;;4187754;28;20047;-49
2023/09/04 11:32:22;;;;;;;2.45;2.35;;;23.50;71.10;;;;;;4187612;28;20129;-42
2023/09/04 11:35:11;;;;;;;2.53;2.33;;;23.50;71.10;;;;;;4186994;28;20233;-41
2023/09/04 11:37:52;;;;;;;2.08;1.98;;;23.50;70.50;;;;;;4186013;28;20047;-41
2023/09/04 11:40:34;;;;;;;5.03;1.92;;;23.50;70.60;;;;;;4187237;28;20075;-42
2023/09/04 11:43:16;;;;;;;3.72;2.00;;;23.50;70.30;;;;;;4187091;28;20059;-42
2023/09/04 11:45:57;;;;;;;1.88;1.77;;;23.50;70.10;;;;;;4187265;28;20560;-40
2023/09/04 11:48:39;;;;;;;2.28;2.17;;;23.50;70.00;;;;;;4187179;28;20595;-48
2023/09/04 11:51:20;;;;;;;2.60;1.88;;;23.60;69.30;;;;;;4187925;28;20083;-49
2023/09/04 11:54:05;;;;;;;2.30;2.10;;;23.60;68.90;;;;;;4186998;28;20159;-47
2023/09/04 11:56:47;;;;;;;2.55;1.83;;;23.60;69.10;;;;;;4186039;28;20062;-49
2023/09/04 11:59:28;;;;;;;2.10;2.00;;;23.60;69.00;;;;;;4186094;28;20392;-48
2023/09/04 12:02:12;;;;;;;2.08;1.98;;;23.60;69.40;;;;;;4186328;28;20101;-48
2023/09/04 12:04:56;;;;;;;;;;;23.60;69.40;;;;;;4187414;28;20047;-47
2023/09/04 12:07:37;;;;;;;2.17;1.60;;;23.70;69.70;;;;;;4186892;28;19942;-49
2023/09/04 12:10:18;;;;;;;2.42;1.75;;;23.70;69.00;;;;;;4187027;28;20519;-48
2023/09/04 12:13:02;;;;;;;2.08;1.98;;;23.70;68.70;;;;;;4186589;28;20063;-48
2023/09/04 12:15:44;;;;;;;1.83;1.70;;;23.70;68.70;;;;;;4185492;28;20101;-49
2023/09/04 12:18:26;;;;;;;2.17;2.08;;;23.70;68.60;;;;;;4186562;28;20055;-51
2023/09/04 12:21:08;;;;;;;1.98;1.88;;;23.70;68.40;;;;;;4187743;28;20399;-50
2023/09/04 12:23:50;;;;;;;1.80;1.70;;;23.70;68.00;;;;;;4186706;28;20113;-50
2023/09/04 12:26:32;;;;;;;2.95;1.80;;;23.70;68.50;;;;;;4189074;28;20051;-47
2023/09/04 12:29:15;;;;;;;2.05;1.90;;;23.70;68.90;;;;;;4188404;28;20051;-48
2023/09/04 12:31:59;;;;;;;2.17;1.83;;;23.80;68.70;;;;;;4176141;28;20126;-52
2023/09/04 12:34:40;;;;;;;1.75;1.60;;;23.80;67.60;;;;;;4190194;28;20047;-52
2023/09/04 12:37:21;;;;;;;;;;;23.80;67.30;;;;;;4189970;28;20052;-51
2023/09/04 12:40:02;;;;;;;2.75;1.70;;;23.80;68.40;;;;;;4188637;28;19969;-50
2023/09/04 12:42:43;;;;;;;1.83;1.70;;;23.80;67.90;;;;;;4189406;28;20055;-50
2023/09/04 12:45:25;;;;;;;;;;;23.80;67.30;;;;;;4190502;28;20109;-50
2023/09/04 12:48:14;;;;;;;2.20;2.00;;;23.90;67.30;;;;;;4168788;28;19927;-48
2023/09/04 12:50:59;;;;;;;1.95;1.67;;;23.90;66.80;;;;;;4188472;28;20065;-49
2023/09/04 12:53:41;;;;;;;2.88;2.00;;;23.90;66.60;;;;;;4170989;28;20308;-47
2023/09/04 12:56:21;;;;;;;3.80;2.15;;;23.90;66.50;;;;;;4181596;28;20211;-48
2023/09/04 12:59:03;;;;;;;;;;;24.00;65.60;;;;;;4190207;28;20055;-49
2023/09/04 13:01:45;;;;;;;2.50;1.60;;;24.00;66.00;;;;;;4189142;28;19947;-48
2023/09/04 13:04:26;;;;;;;2.30;1.80;;;24.00;66.30;;;;;;4189346;28;20055;-48
2023/09/04 13:07:07;;;;;;;;;;;24.10;66.20;;;;;;4188393;28;20051;-52
2023/09/04 13:09:48;;;;;;;2.27;1.73;;;24.10;65.50;;;;;;4190051;28;19943;-55
2023/09/04 13:12:29;;;;;;;1.48;1.38;;;24.10;65.50;;;;;;4189658;28;20067;-54
2023/09/04 13:15:11;;;;;;;;;;;24.10;65.50;;;;;;4190437;28;20043;-54
2023/09/04 13:17:53;;;;;;;1.95;1.67;;;24.10;66.10;;;;;;4189479;28;20009;-54
2023/09/04 13:20:35;;;;;;;1.70;1.60;;;24.10;66.20;;;;;;4189493;28;20056;-52
2023/09/04 13:23:16;;;;;;;2.20;2.10;;;24.10;66.10;;;;;;4188756;28;20093;-54
2023/09/04 13:25:57;;;;;;;1.55;1.45;;;24.20;66.10;;;;;;4189133;28;20108;-53
2023/09/04 13:28:38;;;;;;;1.38;1.17;;;24.20;65.50;;;;;;4189235;28;20055;-55
2023/09/04 13:31:19;;;;;;;;;;;24.20;65.70;;;;;;4189176;28;20408;-54
2023/09/04 13:34:01;;;;;;;3.55;3.25;;;24.30;66.30;;;;;;4189388;28;20461;-54
2023/09/04 13:36:43;;;;;;;1.80;1.70;;;24.30;66.20;;;;;;4190011;28;20055;-54
2023/09/04 13:39:25;;;;;;;2.97;1.85;;;24.30;66.20;;;;;;4188255;28;20135;-50
2023/09/04 13:42:06;;;;;;;2.05;1.83;;;24.30;65.40;;;;;;4188061;28;20051;-49
2023/09/04 13:44:46;;;;;;;;;;;24.30;64.70;;;;;;4189529;28;20499;-49
2023/09/04 13:47:28;;;;;;;3.90;1.45;;;24.40;65.00;;;;;;4189030;28;19989;-48
2023/09/04 13:50:11;;;;;;;2.38;1.88;;;24.30;65.50;;;;;;4187833;28;20054;-53
2023/09/04 13:52:52;;;;;;;1.90;1.80;;;24.30;64.80;;;;;;4189433;28;20419;-53
2023/09/04 13:55:34;;;;;;;2.33;1.98;;;24.40;65.20;;;;;;4189076;28;20052;-53
2023/09/04 13:58:15;;;;;;;2.08;1.90;;;24.40;66.20;;;;;;4187651;28;20063;-54
2023/09/04 14:00:56;;;;;;;5.50;1.98;;;24.40;65.00;;;;;;4173902;28;20118;-53
2023/09/04 14:03:37;;;;;;;3.35;1.95;;;24.40;65.10;;;;;;4187457;28;20060;-54
2023/09/04 14:06:20;;;;;;;2.72;1.67;;;24.50;65.80;;;;;;4184100;28;20067;-50
2023/09/04 14:09:00;;;;;;;3.35;3.05;;;24.50;66.30;;;;;;4188727;28;20175;-53
2023/09/04 14:11:41;;;;;;;;;;;24.50;65.30;;;;;;4189040;28;20086;-51